createdAt,value
2023-04-19T00:00:22.788Z,7.80
2023-04-19T00:02:54.237Z,7.90
2023-04-19T00:05:26.219Z,6.78
2023-04-19T00:07:56.979Z,4.50
2023-04-19T00:10:28.708Z,4.40
2023-04-19T00:13:01.281Z,5.22
2023-04-19T00:15:32.080Z,4.67
2023-04-19T00:18:02.767Z,4.87
2023-04-19T00:20:33.485Z,7.03
2023-04-19T00:23:06.697Z,4.80
2023-04-19T00:25:39.581Z,6.15
2023-04-19T00:28:10.405Z,3.95
2023-04-19T00:30:43.564Z,6.42
2023-04-19T00:33:14.213Z,5.92
2023-04-19T00:35:44.982Z,6.03
2023-04-19T00:38:16.707Z,6.78
2023-04-19T00:40:48.848Z,4.67
2023-04-19T00:43:22.583Z,5.42
2023-04-19T00:45:53.479Z,3.75
2023-04-19T00:48:25.691Z,5.55
2023-04-19T00:50:58.486Z,3.80
2023-04-19T00:53:30.055Z,4.00
2023-04-19T00:56:05.840Z,4.47
2023-04-19T00:58:39.899Z,5.83
2023-04-19T01:01:10.895Z,4.80
2023-04-19T01:03:42.793Z,3.83
2023-04-19T01:06:14.176Z,3.87
2023-04-19T01:08:44.709Z,5.62
2023-04-19T01:11:15.430Z,5.05
2023-04-19T01:13:46.070Z,6.00
2023-04-19T01:16:19.939Z,6.12
2023-04-19T01:18:50.431Z,6.95
2023-04-19T01:21:22.436Z,8.18
2023-04-19T01:23:52.966Z,4.70
2023-04-19T01:26:24.534Z,6.47
2023-04-19T01:28:57.218Z,6.85
2023-04-19T01:31:29.644Z,4.12
2023-04-19T01:34:01.595Z,4.47
2023-04-19T01:36:32.090Z,4.63
2023-04-19T01:39:04.848Z,4.92
2023-04-19T01:41:38.109Z,6.03
2023-04-19T01:44:08.703Z,4.83
2023-04-19T01:46:39.523Z,7.37
2023-04-19T01:49:10.781Z,6.60
2023-04-19T01:51:41.309Z,6.00
2023-04-19T01:54:11.811Z,6.12
2023-04-19T01:56:53.342Z,4.33
2023-04-19T01:59:24.218Z,4.05
2023-04-19T02:02:10.392Z,4.40
2023-04-19T02:04:46.497Z,5.12
2023-04-19T02:07:22.428Z,5.33
2023-04-19T02:10:01.506Z,5.53
2023-04-19T02:12:38.982Z,4.47
2023-04-19T02:15:10.555Z,4.60
2023-04-19T02:17:43.655Z,3.80
2023-04-19T02:20:16.258Z,4.60
2023-04-19T02:22:48.670Z,5.33
2023-04-19T02:25:19.460Z,5.13
2023-04-19T02:27:57.205Z,5.12
2023-04-19T02:30:28.710Z,4.45
2023-04-19T02:32:59.257Z,4.12
2023-04-19T02:35:31.454Z,3.65
2023-04-19T02:38:03.308Z,3.97
2023-04-19T02:40:33.727Z,4.53
2023-04-19T02:43:07.755Z,4.40
2023-04-19T02:45:37.660Z,5.33
2023-04-19T02:48:09.028Z,5.65
2023-04-19T02:50:39.787Z,5.78
2023-04-19T02:53:10.671Z,4.58
2023-04-19T02:55:41.219Z,4.83
2023-04-19T02:58:13.991Z,4.07
2023-04-19T03:00:44.596Z,6.22
2023-04-19T03:03:15.225Z,5.05
2023-04-19T03:05:47.521Z,5.63
2023-04-19T03:08:18.317Z,5.05
2023-04-19T03:10:49.355Z,5.23
2023-04-19T03:13:19.927Z,6.70
2023-04-19T03:15:50.722Z,4.75
2023-04-19T03:18:22.908Z,4.95
2023-04-19T03:20:55.417Z,4.27
2023-04-19T03:23:27.610Z,3.60
2023-04-19T03:25:58.033Z,3.87
2023-04-19T03:28:29.333Z,5.17
2023-04-19T03:31:01.058Z,3.83
2023-04-19T03:33:31.690Z,5.20
2023-04-19T03:36:04.292Z,4.87
2023-04-19T03:38:37.194Z,6.03
2023-04-19T03:41:11.716Z,4.43
2023-04-19T03:43:42.138Z,4.13
2023-04-19T03:46:14.382Z,5.23
2023-04-19T03:48:46.096Z,5.62
2023-04-19T03:51:18.151Z,4.42
2023-04-19T03:53:49.677Z,6.33
2023-04-19T03:56:20.754Z,4.53
2023-04-19T03:58:54.134Z,5.05
2023-04-19T04:01:25.324Z,4.50
2023-04-19T04:03:56.067Z,5.70
2023-04-19T04:06:26.766Z,3.53
2023-04-19T04:08:57.290Z,5.70
2023-04-19T04:11:28.063Z,4.10
2023-04-19T04:14:00.304Z,5.90
2023-04-19T04:16:31.072Z,4.80
2023-04-19T04:19:01.838Z,3.83
2023-04-19T04:21:32.454Z,8.93
2023-04-19T04:24:04.638Z,4.93
2023-04-19T04:26:38.610Z,4.27
2023-04-19T04:29:09.779Z,4.33
2023-04-19T04:31:42.815Z,6.20
2023-04-19T04:34:14.843Z,7.55
2023-04-19T04:36:48.797Z,4.57
2023-04-19T04:39:19.274Z,4.50
2023-04-19T04:41:52.321Z,5.60
2023-04-19T04:44:23.144Z,5.62
2023-04-19T04:46:53.748Z,6.28
2023-04-19T04:49:24.351Z,6.07
2023-04-19T04:51:54.989Z,4.95
2023-04-19T04:54:26.253Z,4.27
2023-04-19T04:56:58.216Z,3.90
2023-04-19T04:59:28.869Z,5.60
2023-04-19T05:01:59.812Z,6.43
2023-04-19T05:04:30.353Z,4.95
2023-04-19T05:07:03.326Z,6.13
2023-04-19T05:09:33.867Z,6.43
2023-04-19T05:12:04.605Z,8.17
2023-04-19T05:14:36.174Z,4.65
2023-04-19T05:17:08.083Z,3.60
2023-04-19T05:19:38.614Z,6.30
2023-04-19T05:22:12.270Z,5.92
2023-04-19T05:24:43.106Z,3.55
2023-04-19T05:27:14.732Z,4.60
2023-04-19T05:29:45.746Z,4.75
2023-04-19T05:32:18.178Z,5.10
2023-04-19T05:34:48.852Z,4.72
2023-04-19T05:37:22.324Z,3.77
2023-04-19T05:39:53.236Z,5.12
2023-04-19T05:42:27.212Z,4.10
2023-04-19T05:44:58.684Z,6.35
2023-04-19T05:47:31.103Z,4.83
2023-04-19T05:50:01.994Z,4.00
2023-04-19T05:52:34.070Z,5.10
2023-04-19T05:55:04.902Z,3.00
2023-04-19T05:57:35.481Z,4.95
2023-04-19T06:00:08.779Z,4.60
2023-04-19T06:02:40.617Z,5.12
2023-04-19T06:05:11.757Z,5.58
2023-04-19T06:07:47.294Z,5.72
2023-04-19T06:10:16.328Z,4.45
2023-04-19T06:12:46.849Z,3.77
2023-04-19T06:15:17.436Z,6.22
2023-04-19T06:17:48.208Z,6.78
2023-04-19T06:20:19.132Z,4.75
2023-04-19T06:22:50.456Z,4.70
2023-04-19T06:25:21.352Z,6.42
2023-04-19T06:27:51.922Z,3.83
2023-04-19T06:30:22.459Z,3.72
2023-04-19T06:32:54.770Z,3.67
2023-04-19T06:35:25.523Z,5.00
2023-04-19T06:37:58.052Z,4.47
2023-04-19T06:40:29.541Z,5.08
2023-04-19T06:43:01.859Z,6.58
2023-04-19T06:45:34.001Z,5.50
2023-04-19T06:48:06.335Z,3.55
2023-04-19T06:50:38.532Z,4.08
2023-04-19T06:53:09.898Z,4.62
2023-04-19T06:55:40.701Z,5.28
2023-04-19T06:58:11.453Z,4.15
2023-04-19T07:00:42.828Z,3.42
2023-04-19T07:03:13.675Z,2.95
2023-04-19T07:05:47.280Z,6.33
2023-04-19T07:08:18.739Z,6.33
2023-04-19T07:10:50.566Z,3.20
2023-04-19T07:13:23.314Z,5.08
2023-04-19T07:15:55.940Z,5.30
2023-04-19T07:18:26.494Z,6.03
2023-04-19T07:20:56.912Z,5.00
2023-04-19T07:23:27.601Z,5.37
2023-04-19T07:25:58.546Z,4.70
2023-04-19T07:28:31.758Z,5.10
2023-04-19T07:31:02.513Z,2.90
2023-04-19T07:33:33.133Z,5.92
2023-04-19T07:36:03.642Z,4.95
2023-04-19T07:38:34.188Z,5.37
2023-04-19T07:41:08.404Z,5.37
2023-04-19T07:43:39.974Z,3.58
2023-04-19T07:46:19.514Z,3.15
2023-04-19T07:48:51.088Z,2.62
2023-04-19T07:51:24.099Z,4.00
2023-04-19T07:53:54.737Z,5.53
2023-04-19T07:56:26.555Z,2.33
2023-04-19T07:59:07.397Z,4.92
2023-04-19T08:01:32.959Z,4.10
2023-04-19T08:04:05.094Z,5.97
2023-04-19T08:06:39.705Z,4.15
2023-04-19T08:09:10.320Z,5.72
2023-04-19T08:11:41.015Z,4.58
2023-04-19T08:14:28.379Z,6.67
2023-04-19T08:19:20.312Z,5.30
2023-04-19T08:21:50.988Z,5.45
2023-04-19T08:24:23.100Z,3.98
2023-04-19T08:26:54.564Z,4.97
2023-04-19T08:29:25.824Z,3.62
2023-04-19T08:31:56.627Z,3.95
2023-04-19T08:34:28.112Z,6.33
2023-04-19T08:37:04.120Z,4.85
2023-04-19T08:39:33.923Z,4.47
2023-04-19T08:42:24.596Z,4.42
2023-04-19T08:45:02.260Z,7.17
2023-04-19T08:47:30.161Z,3.65
2023-04-19T08:50:00.421Z,4.17
2023-04-19T08:52:24.850Z,6.90
2023-04-19T08:55:01.936Z,6.08
2023-04-19T08:57:33.820Z,8.13
2023-04-19T09:00:07.591Z,4.33
2023-04-19T09:02:50.056Z,4.72
2023-04-19T09:05:22.437Z,7.65
2023-04-19T09:07:53.150Z,5.25
2023-04-19T09:10:27.132Z,5.22
2023-04-19T09:13:07.210Z,4.90
2023-04-19T09:15:40.919Z,6.50
2023-04-19T09:18:14.667Z,4.30
2023-04-19T09:20:46.339Z,3.70
2023-04-19T09:23:20.213Z,5.17
2023-04-19T09:28:36.593Z,5.33
2023-04-19T09:31:33.210Z,5.60
2023-04-19T09:33:46.267Z,4.87
2023-04-19T09:36:34.273Z,4.30
2023-04-19T09:39:05.615Z,5.92
2023-04-19T09:41:38.759Z,6.50
2023-04-19T09:46:51.678Z,4.55
2023-04-19T09:49:37.444Z,5.03
2023-04-19T09:52:02.014Z,5.00
2023-04-19T09:54:34.680Z,6.20
2023-04-19T09:57:05.550Z,6.22
2023-04-19T09:59:36.170Z,3.95
2023-04-19T10:02:07.906Z,4.33
2023-04-19T10:09:53.141Z,7.33
2023-04-19T10:12:45.540Z,4.15
2023-04-19T10:14:51.522Z,6.55
2023-04-19T10:17:23.380Z,4.80
2023-04-19T10:20:00.737Z,6.80
2023-04-19T10:22:33.005Z,6.05
2023-04-19T10:25:13.911Z,7.75
2023-04-19T10:27:49.177Z,5.95
2023-04-19T10:30:21.343Z,6.30
2023-04-19T10:32:57.072Z,7.97
2023-04-19T10:35:32.068Z,12.35
2023-04-19T10:38:12.087Z,7.80
2023-04-19T10:41:03.917Z,7.58
2023-04-19T10:43:36.700Z,8.60
2023-04-19T10:46:11.803Z,9.78
2023-04-19T10:48:54.721Z,7.55
2023-04-19T10:51:31.552Z,5.70
2023-04-19T10:54:20.892Z,9.70
2023-04-19T10:57:05.082Z,4.60
2023-04-19T10:59:38.172Z,8.50
2023-04-19T11:02:29.438Z,5.00
2023-04-19T11:05:01.307Z,4.97
2023-04-19T11:07:34.860Z,4.83
2023-04-19T11:10:06.736Z,6.65
2023-04-19T11:12:49.273Z,7.03
2023-04-19T11:15:24.357Z,7.78
2023-04-19T11:18:11.438Z,5.37
2023-04-19T11:20:28.614Z,5.75
2023-04-19T11:23:01.119Z,8.25
2023-04-19T11:25:33.324Z,6.33
2023-04-19T11:28:03.909Z,6.08
2023-04-19T11:30:35.683Z,5.45
2023-04-19T11:33:09.040Z,4.92
2023-04-19T11:35:41.629Z,4.95
2023-04-19T11:38:14.293Z,8.43
2023-04-19T11:40:45.074Z,4.25
2023-04-19T11:43:16.388Z,5.03
2023-04-19T11:45:47.318Z,7.08
2023-04-19T11:48:20.864Z,4.92
2023-04-19T11:50:51.572Z,3.77
2023-04-19T11:53:24.665Z,5.45
2023-04-19T11:55:59.836Z,4.67
2023-04-19T11:58:43.828Z,6.62
2023-04-19T12:01:16.424Z,6.17
2023-04-19T12:03:55.641Z,4.80
2023-04-19T12:06:36.119Z,5.62
2023-04-19T12:09:11.879Z,7.33
2023-04-19T12:11:49.652Z,7.05
2023-04-19T12:14:22.786Z,5.47
2023-04-19T12:17:15.377Z,6.05
2023-04-19T12:19:48.070Z,6.35
2023-04-19T12:22:20.970Z,6.30
2023-04-19T12:24:56.076Z,7.35
2023-04-19T12:27:26.514Z,5.15
2023-04-19T12:29:59.095Z,6.45
2023-04-19T12:32:30.868Z,5.50
2023-04-19T12:35:01.377Z,6.35
2023-04-19T12:37:36.503Z,5.85
2023-04-19T12:40:10.215Z,5.47
2023-04-19T12:42:41.493Z,7.22
2023-04-19T12:45:13.168Z,7.08
2023-04-19T12:47:45.648Z,5.83
2023-04-19T12:50:18.593Z,7.90
2023-04-19T12:52:49.249Z,6.00
2023-04-19T12:55:21.011Z,6.40
2023-04-19T12:57:51.580Z,8.90
2023-04-19T13:00:25.704Z,9.25
2023-04-19T13:02:58.593Z,5.30
2023-04-19T13:05:30.729Z,4.67
2023-04-19T13:08:01.695Z,5.17
2023-04-19T13:10:32.248Z,6.60
2023-04-19T13:13:02.900Z,4.90
2023-04-19T13:15:36.695Z,5.20
2023-04-19T13:18:09.332Z,7.40
2023-04-19T13:20:40.628Z,6.42
2023-04-19T13:23:11.232Z,5.90
2023-04-19T13:25:42.523Z,5.67
2023-04-19T13:28:14.880Z,6.05
2023-04-19T13:30:45.737Z,6.15
2023-04-19T13:33:16.511Z,6.25
2023-04-19T13:35:48.790Z,7.10
2023-04-19T13:38:20.550Z,6.53
2023-04-19T13:40:51.602Z,7.85
2023-04-19T13:43:22.577Z,6.80
2023-04-19T13:45:54.105Z,4.00
2023-04-19T13:48:26.620Z,4.10
2023-04-19T13:50:58.342Z,7.55
2023-04-19T13:53:29.703Z,5.70
2023-04-19T13:56:00.856Z,6.22
2023-04-19T13:58:32.012Z,4.55
2023-04-19T14:01:04.855Z,6.20
2023-04-19T14:03:37.335Z,5.40
2023-04-19T14:06:09.559Z,7.40
2023-04-19T14:08:41.319Z,5.15
2023-04-19T14:11:12.354Z,6.28
2023-04-19T14:13:44.059Z,6.60
2023-04-19T14:16:15.159Z,8.38
2023-04-19T14:18:45.587Z,7.10
2023-04-19T14:21:18.828Z,6.80
2023-04-19T14:23:52.497Z,7.22
2023-04-19T14:26:23.986Z,7.67
2023-04-19T14:28:56.099Z,7.08
2023-04-19T14:31:28.342Z,9.08
2023-04-19T14:33:59.964Z,6.33
2023-04-19T14:36:30.569Z,7.60
2023-04-19T14:39:01.069Z,6.35
2023-04-19T14:41:31.687Z,6.67
2023-04-19T14:44:02.308Z,6.47
2023-04-19T14:46:32.875Z,8.88
2023-04-19T14:49:06.460Z,7.55
2023-04-19T14:51:37.368Z,6.97
2023-04-19T14:54:08.012Z,6.22
2023-04-19T14:56:39.495Z,7.72
2023-04-19T14:59:16.907Z,8.18
2023-04-19T15:01:43.871Z,9.48
2023-04-19T15:04:14.986Z,11.63
2023-04-19T15:06:46.180Z,9.10
2023-04-19T15:09:16.686Z,8.68
2023-04-19T15:11:49.021Z,10.20
2023-04-19T15:14:20.352Z,10.15
2023-04-19T15:16:51.297Z,7.55
2023-04-19T15:19:23.730Z,10.72
2023-04-19T15:21:54.352Z,8.08
2023-04-19T15:24:25.221Z,12.65
2023-04-19T15:26:56.762Z,12.40
2023-04-19T15:29:28.421Z,13.72
2023-04-19T15:32:02.570Z,10.43
2023-04-19T15:38:27.166Z,12.97
2023-04-19T15:41:08.108Z,13.32
2023-04-19T15:43:55.828Z,12.80
2023-04-19T15:46:34.450Z,13.13
2023-04-19T15:49:06.032Z,13.87
2023-04-19T15:51:36.645Z,13.27
2023-04-19T15:54:08.250Z,12.98
2023-04-19T15:56:38.748Z,13.58
2023-04-19T15:59:09.297Z,11.30
2023-04-19T16:01:39.926Z,15.13
2023-04-19T16:04:10.635Z,16.97
2023-04-19T16:06:41.899Z,14.73
2023-04-19T16:09:12.719Z,15.50
2023-04-19T16:11:43.394Z,16.10
2023-04-19T16:14:14.108Z,16.27
2023-04-19T16:16:46.222Z,17.57
2023-04-19T16:19:23.065Z,17.30
2023-04-19T16:21:50.004Z,19.48
2023-04-19T16:24:20.699Z,16.93
2023-04-19T16:26:53.721Z,19.43
2023-04-19T16:29:24.737Z,18.87
2023-04-19T16:31:55.458Z,17.57
2023-04-19T16:34:26.010Z,17.95
2023-04-19T16:36:56.922Z,23.47
2023-04-19T16:39:27.637Z,19.20
2023-04-19T16:41:58.486Z,20.52
2023-04-19T16:44:29.008Z,18.92
2023-04-19T16:46:59.589Z,16.40
2023-04-19T16:49:30.321Z,17.37
2023-04-19T16:52:01.007Z,16.82
2023-04-19T16:54:31.641Z,18.17
2023-04-19T16:57:03.357Z,21.30
2023-04-19T16:59:34.034Z,18.32
2023-04-19T17:02:07.462Z,18.87
2023-04-19T17:04:38.597Z,16.90
2023-04-19T17:07:09.511Z,17.57
2023-04-19T17:09:40.276Z,17.57
2023-04-19T17:12:10.923Z,20.40
2023-04-19T17:14:41.511Z,20.10
2023-04-19T17:17:12.169Z,18.60
2023-04-19T17:19:42.712Z,17.10
2023-04-19T17:22:14.473Z,16.25
2023-04-19T17:24:46.458Z,19.40
2023-04-19T17:27:17.091Z,18.52
2023-04-19T17:29:47.649Z,20.37
2023-04-19T17:32:18.830Z,19.98
2023-04-19T17:34:51.241Z,20.57
2023-04-19T17:37:21.699Z,20.23
2023-04-19T17:39:52.246Z,20.45
2023-04-19T17:42:25.846Z,16.97
2023-04-19T17:44:56.529Z,19.15
2023-04-19T17:47:27.243Z,17.77
2023-04-19T17:50:07.395Z,15.77
2023-04-19T17:52:37.962Z,14.07
2023-04-19T17:55:10.440Z,19.52
2023-04-19T17:57:42.351Z,16.70
2023-04-19T18:00:15.012Z,14.60
2023-04-19T18:02:45.590Z,17.32
2023-04-19T18:05:16.577Z,14.58
2023-04-19T18:07:47.951Z,20.72
2023-04-19T18:10:19.018Z,16.85
2023-04-19T18:12:49.644Z,18.60
2023-04-19T18:15:22.875Z,18.42
2023-04-19T18:17:53.518Z,21.40
2023-04-19T18:20:28.040Z,18.42
2023-04-19T18:23:00.112Z,20.27
2023-04-19T18:25:33.816Z,20.97
2023-04-19T18:28:06.767Z,21.52
2023-04-19T18:30:39.800Z,22.83
2023-04-19T18:33:11.723Z,22.33
2023-04-19T18:35:42.580Z,23.97
2023-04-19T18:38:16.859Z,21.07
2023-04-19T18:40:50.105Z,21.43
2023-04-19T18:43:24.518Z,24.43
2023-04-19T18:46:00.402Z,23.30
2023-04-19T18:48:31.415Z,24.00
2023-04-19T18:51:03.716Z,22.10
2023-04-19T18:53:35.010Z,26.17
2023-04-19T18:56:09.130Z,24.70
2023-04-19T18:58:39.728Z,24.82
2023-04-19T19:01:12.151Z,26.27
2023-04-19T19:06:17.667Z,27.60
2023-04-19T19:08:50.207Z,24.93
2023-04-19T19:11:47.174Z,29.87
2023-04-19T19:13:53.641Z,29.30
2023-04-19T19:18:57.317Z,28.92
2023-04-19T19:21:29.436Z,30.70
2023-04-19T19:24:02.803Z,32.23
2023-04-19T19:26:37.449Z,31.17
2023-04-19T19:29:09.256Z,33.15
2023-04-19T19:31:40.410Z,35.15
2023-04-19T19:34:25.339Z,34.85
2023-04-19T19:36:45.390Z,32.73
2023-04-19T19:39:16.913Z,38.17
2023-04-19T19:44:22.434Z,38.10
2023-04-19T19:46:52.945Z,37.10
2023-04-19T19:49:24.136Z,34.75
2023-04-19T19:51:59.051Z,35.40
2023-04-19T19:54:28.367Z,38.35
2023-04-19T19:57:48.402Z,39.23
2023-04-19T19:59:34.803Z,39.33
2023-04-19T20:02:05.433Z,37.45
2023-04-19T20:04:37.964Z,39.95
2023-04-19T20:07:32.499Z,43.35
2023-04-19T20:09:42.101Z,43.65
2023-04-19T20:12:14.695Z,42.58
2023-04-19T20:14:45.270Z,39.30
2023-04-19T20:17:15.915Z,42.67
2023-04-19T20:19:47.127Z,38.37
2023-04-19T20:22:17.901Z,38.08
2023-04-19T20:24:50.541Z,38.97
2023-04-19T20:27:21.752Z,40.23
2023-04-19T20:29:52.534Z,42.43
2023-04-19T20:32:24.900Z,42.65
2023-04-19T20:34:56.767Z,41.10
2023-04-19T20:37:27.644Z,39.15
2023-04-19T20:39:59.184Z,38.53
2023-04-19T20:42:31.116Z,36.33
2023-04-19T20:45:01.894Z,40.07
2023-04-19T20:47:33.725Z,37.10
2023-04-19T20:50:05.723Z,37.20
2023-04-19T20:52:38.130Z,33.53
2023-04-19T20:55:11.700Z,36.30
2023-04-19T20:57:44.844Z,35.63
2023-04-19T21:00:16.767Z,36.43
2023-04-19T21:02:47.752Z,34.05
2023-04-19T21:05:20.101Z,32.53
2023-04-19T21:07:50.829Z,32.53
2023-04-19T21:10:22.129Z,30.20
2023-04-19T21:12:54.823Z,30.80
2023-04-19T21:15:25.467Z,32.88
2023-04-19T21:17:56.037Z,33.23
2023-04-19T21:20:26.758Z,32.10
2023-04-19T21:22:58.048Z,32.17
2023-04-19T21:25:29.094Z,36.85
2023-04-19T21:27:59.988Z,31.17
2023-04-19T21:30:31.638Z,28.20
2023-04-19T21:33:02.578Z,27.58
2023-04-19T21:35:33.325Z,33.67
2023-04-19T21:38:04.165Z,30.10
2023-04-19T21:40:35.572Z,29.10
2023-04-19T21:43:10.193Z,28.12
2023-04-19T21:45:40.828Z,31.52
2023-04-19T21:48:12.858Z,30.92
2023-04-19T21:50:44.869Z,29.75
2023-04-19T21:53:15.624Z,27.87
2023-04-19T21:55:47.767Z,28.12
2023-04-19T21:58:18.906Z,25.80
2023-04-19T22:00:50.006Z,27.07
2023-04-19T22:03:21.432Z,26.77
2023-04-19T22:05:52.558Z,26.30
2023-04-19T22:08:23.387Z,24.80
2023-04-19T22:10:58.206Z,25.83
2023-04-19T22:13:30.147Z,23.05
2023-04-19T22:16:03.355Z,26.75
2023-04-19T22:18:35.801Z,27.82
2023-04-19T22:21:06.497Z,24.37
2023-04-19T22:23:37.815Z,21.20
2023-04-19T22:26:08.377Z,18.80
2023-04-19T22:28:38.946Z,18.60
2023-04-19T22:31:09.399Z,16.93
2023-04-19T22:33:39.977Z,17.82
2023-04-19T22:36:10.769Z,16.25
2023-04-19T22:38:41.417Z,16.23
2023-04-19T22:41:12.132Z,17.93
2023-04-19T22:43:45.616Z,18.62
2023-04-19T22:46:17.762Z,17.48
2023-04-19T22:48:48.380Z,14.70
2023-04-19T22:51:19.031Z,15.28
2023-04-19T22:53:49.736Z,16.27
2023-04-19T22:56:20.285Z,15.10
2023-04-19T22:58:51.028Z,14.37
2023-04-19T23:01:21.520Z,12.80
2023-04-19T23:03:52.458Z,14.15
2023-04-19T23:06:23.427Z,12.90
2023-04-19T23:08:53.967Z,13.63
2023-04-19T23:11:24.860Z,15.43
2023-04-19T23:13:56.398Z,13.67
2023-04-19T23:16:29.057Z,11.67
2023-04-19T23:19:01.149Z,10.97
2023-04-19T23:21:31.649Z,10.63
2023-04-19T23:24:02.220Z,11.23
2023-04-19T23:26:33.722Z,10.90
2023-04-19T23:29:04.218Z,13.23
2023-04-19T23:31:34.840Z,11.10
2023-04-19T23:34:05.617Z,12.20
2023-04-19T23:36:36.635Z,10.20
2023-04-19T23:39:07.458Z,10.70
2023-04-19T23:41:44.934Z,10.38
2023-04-19T23:44:19.856Z,11.57
2023-04-19T23:46:51.472Z,9.43
2023-04-19T23:49:22.025Z,9.90
2023-04-19T23:51:53.630Z,9.60
2023-04-19T23:54:25.951Z,10.48
2023-04-19T23:56:58.759Z,10.10
2023-04-19T23:59:30.179Z,9.90
